createdAt,value
2018-03-23T00:03:01.302Z,6.23
2018-03-23T00:06:04.582Z,8.47
2018-03-23T00:09:07.887Z,6.97
2018-03-23T00:12:11.150Z,6.53
2018-03-23T00:15:14.463Z,7.73
2018-03-23T00:18:17.754Z,6.90
2018-03-23T00:21:22.139Z,6.95
2018-03-23T00:24:25.437Z,6.80
2018-03-23T00:27:28.778Z,8.10
2018-03-23T00:30:32.062Z,8.43
2018-03-23T00:33:35.744Z,7.90
2018-03-23T00:36:39.750Z,8.65
2018-03-23T00:39:43.354Z,8.07
2018-03-23T00:42:47.061Z,8.30
2018-03-23T00:45:50.572Z,8.43
2018-03-23T00:48:54.981Z,8.63
2018-03-23T00:51:58.557Z,7.90
2018-03-23T00:55:01.817Z,8.47
2018-03-23T00:58:05.722Z,8.67
2018-03-23T01:01:09.511Z,8.40
2018-03-23T01:04:13.101Z,9.18
2018-03-23T01:07:17.064Z,9.33
2018-03-23T01:10:20.351Z,8.40
2018-03-23T01:13:23.624Z,9.03
2018-03-23T01:16:28.248Z,8.40
2018-03-23T01:19:31.739Z,9.37
2018-03-23T01:22:36.168Z,9.60
2018-03-23T01:25:39.749Z,9.43
2018-03-23T01:28:43.797Z,8.03
2018-03-23T01:31:47.473Z,10.83
2018-03-23T01:34:51.630Z,9.33
2018-03-23T01:37:55.235Z,8.77
2018-03-23T01:40:59.460Z,8.77
2018-03-23T01:44:02.761Z,9.57
2018-03-23T01:47:06.664Z,10.40
2018-03-23T01:50:10.372Z,9.93
2018-03-23T01:53:31.769Z,8.83
2018-03-23T01:56:36.511Z,9.90
2018-03-23T01:59:40.525Z,10.07
2018-03-23T02:02:43.820Z,9.87
2018-03-23T02:05:47.138Z,8.98
2018-03-23T02:08:50.451Z,9.77
2018-03-23T02:11:53.994Z,9.17
2018-03-23T02:14:57.252Z,9.23
2018-03-23T02:18:00.740Z,9.27
2018-03-23T02:21:04.009Z,9.80
2018-03-23T02:24:08.068Z,10.67
2018-03-23T02:27:11.614Z,9.37
2018-03-23T02:30:15.930Z,9.30
2018-03-23T02:33:21.449Z,9.47
2018-03-23T02:36:24.804Z,9.63
2018-03-23T02:39:28.145Z,10.85
2018-03-23T02:42:31.458Z,8.80
2018-03-23T02:45:34.844Z,11.00
2018-03-23T02:48:38.302Z,10.80
2018-03-23T02:51:41.732Z,10.17
2018-03-23T02:54:45.024Z,9.02
2018-03-23T02:57:48.310Z,10.10
2018-03-23T03:00:51.887Z,9.97
2018-03-23T03:03:55.941Z,10.00
2018-03-23T03:06:59.442Z,10.00
2018-03-23T03:10:02.727Z,10.80
2018-03-23T03:13:06.321Z,9.87
2018-03-23T03:16:09.926Z,11.40
2018-03-23T03:19:13.977Z,10.60
2018-03-23T03:22:17.265Z,10.90
2018-03-23T03:25:20.641Z,9.67
2018-03-23T03:28:23.962Z,11.10
2018-03-23T03:31:27.540Z,11.12
2018-03-23T03:34:31.569Z,9.93
2018-03-23T03:37:35.089Z,9.57
2018-03-23T03:40:38.408Z,11.13
2018-03-23T03:43:41.720Z,11.93
2018-03-23T03:46:45.061Z,11.03
2018-03-23T03:49:48.621Z,10.30
2018-03-23T03:52:51.888Z,10.37
2018-03-23T03:55:55.190Z,11.93
2018-03-23T03:58:58.888Z,11.27
2018-03-23T04:02:02.165Z,12.67
2018-03-23T04:05:05.570Z,10.73
2018-03-23T04:08:09.172Z,11.30
2018-03-23T04:11:12.767Z,10.87
2018-03-23T04:14:16.797Z,11.17
2018-03-23T04:17:20.050Z,10.83
2018-03-23T04:20:23.564Z,11.40
2018-03-23T04:23:27.012Z,11.70
2018-03-23T04:26:30.478Z,12.30
2018-03-23T04:29:34.589Z,10.90
2018-03-23T04:32:38.096Z,10.57
2018-03-23T04:35:42.228Z,10.95
2018-03-23T04:38:46.984Z,16.20
2018-03-23T04:41:50.537Z,19.27
2018-03-23T04:44:53.837Z,12.10
2018-03-23T04:47:57.198Z,12.13
2018-03-23T04:51:00.579Z,11.70
2018-03-23T04:54:03.878Z,11.20
2018-03-23T04:57:07.289Z,11.90
2018-03-23T05:00:10.770Z,11.37
2018-03-23T05:03:14.325Z,13.37
2018-03-23T05:06:18.005Z,11.97
2018-03-23T05:12:43.418Z,10.23
2018-03-23T05:15:46.856Z,10.57
2018-03-23T05:18:51.622Z,11.47
2018-03-23T05:22:00.226Z,11.87
2018-03-23T05:25:06.056Z,12.23
2018-03-23T05:28:14.247Z,12.10
2018-03-23T05:31:17.706Z,11.47
2018-03-23T05:34:21.642Z,11.40
2018-03-23T05:37:25.302Z,11.57
2018-03-23T05:40:28.941Z,11.60
2018-03-23T05:43:37.120Z,11.50
2018-03-23T05:46:41.495Z,11.35
2018-03-23T05:49:45.779Z,11.10
2018-03-23T05:52:49.521Z,11.93
2018-03-23T05:55:52.893Z,11.33
2018-03-23T05:58:56.333Z,10.47
2018-03-23T06:01:59.831Z,11.60
2018-03-23T06:05:03.272Z,11.23
2018-03-23T06:08:07.205Z,11.50
2018-03-23T06:11:11.639Z,11.80
2018-03-23T06:14:16.788Z,10.53
2018-03-23T06:17:21.183Z,11.03
2018-03-23T06:20:24.892Z,10.88
2018-03-23T06:23:28.514Z,10.83
2018-03-23T06:26:33.273Z,11.70
2018-03-23T06:29:38.190Z,11.50
2018-03-23T06:32:41.764Z,10.30
2018-03-23T06:35:45.042Z,12.27
2018-03-23T06:38:49.092Z,10.47
2018-03-23T06:41:52.379Z,10.73
2018-03-23T06:44:55.655Z,10.77
2018-03-23T06:47:59.392Z,11.47
2018-03-23T06:54:23.820Z,10.40
2018-03-23T06:57:27.943Z,9.17
2018-03-23T07:00:35.098Z,10.03
2018-03-23T07:03:39.867Z,9.33
2018-03-23T07:06:43.272Z,10.40
2018-03-23T07:09:46.550Z,9.20
2018-03-23T07:12:49.879Z,9.50
2018-03-23T07:15:53.262Z,8.97
2018-03-23T07:18:56.547Z,9.53
2018-03-23T07:21:59.891Z,10.33
2018-03-23T07:25:03.201Z,9.30
2018-03-23T07:28:06.493Z,9.27
2018-03-23T07:31:09.844Z,10.50
2018-03-23T07:34:13.104Z,9.90
2018-03-23T07:37:16.376Z,9.37
2018-03-23T07:40:19.673Z,9.23
2018-03-23T07:43:22.925Z,8.73
2018-03-23T07:46:26.971Z,9.17
2018-03-23T07:49:30.234Z,9.10
2018-03-23T07:52:34.252Z,10.87
2018-03-23T07:55:38.409Z,10.13
2018-03-23T07:58:41.671Z,9.33
2018-03-23T08:01:44.933Z,10.17
2018-03-23T08:04:48.206Z,9.40
2018-03-23T08:07:51.491Z,8.97
2018-03-23T08:10:54.775Z,9.20
2018-03-23T08:13:58.038Z,9.03
2018-03-23T08:17:02.161Z,9.80
2018-03-23T08:20:06.252Z,9.88
2018-03-23T08:23:09.501Z,9.67
2018-03-23T08:26:12.818Z,8.83
2018-03-23T08:29:16.138Z,9.63
2018-03-23T08:32:19.407Z,9.10
2018-03-23T08:35:22.669Z,9.70
2018-03-23T08:38:26.689Z,9.73
2018-03-23T08:41:30.812Z,9.60
2018-03-23T08:44:34.097Z,9.27
2018-03-23T08:47:38.235Z,8.77
2018-03-23T08:50:41.476Z,10.10
2018-03-23T08:53:44.732Z,8.10
2018-03-23T08:56:48.077Z,9.13
2018-03-23T08:59:51.333Z,8.87
2018-03-23T09:02:54.598Z,8.60
2018-03-23T09:05:58.647Z,9.53
2018-03-23T09:09:02.042Z,8.03
2018-03-23T09:12:05.313Z,9.20
2018-03-23T09:15:09.470Z,8.67
2018-03-23T09:18:12.740Z,9.13
2018-03-23T09:21:16.003Z,8.67
2018-03-23T09:24:19.436Z,8.20
2018-03-23T09:27:23.491Z,8.60
2018-03-23T09:30:26.853Z,9.03
2018-03-23T09:33:30.121Z,9.23
2018-03-23T09:36:34.733Z,9.63
2018-03-23T09:39:38.000Z,9.53
2018-03-23T09:42:42.129Z,8.97
2018-03-23T09:45:45.476Z,9.47
2018-03-23T09:48:49.522Z,10.10
2018-03-23T09:51:53.708Z,9.13
2018-03-23T09:54:57.726Z,8.93
2018-03-23T09:58:01.954Z,7.87
2018-03-23T10:01:06.061Z,9.23
2018-03-23T10:04:10.510Z,8.57
2018-03-23T10:07:13.874Z,8.10
2018-03-23T10:10:17.219Z,9.43
2018-03-23T10:13:20.858Z,10.13
2018-03-23T10:16:24.142Z,8.77
2018-03-23T10:19:27.533Z,8.90
2018-03-23T10:22:30.922Z,8.13
2018-03-23T10:25:34.238Z,8.00
2018-03-23T10:28:37.520Z,8.50
2018-03-23T10:31:40.815Z,8.45
2018-03-23T10:34:44.304Z,8.27
2018-03-23T10:37:47.582Z,7.77
2018-03-23T10:40:51.633Z,7.27
2018-03-23T10:43:54.905Z,7.97
2018-03-23T10:46:58.932Z,7.87
2018-03-23T10:50:02.194Z,7.70
2018-03-23T10:53:05.587Z,7.70
2018-03-23T10:56:08.886Z,8.40
2018-03-23T10:59:12.152Z,8.70
2018-03-23T11:02:20.863Z,8.43
2018-03-23T11:05:24.132Z,8.13
2018-03-23T11:08:28.164Z,7.80
2018-03-23T11:11:32.388Z,8.10
2018-03-23T11:14:35.649Z,8.55
2018-03-23T11:17:39.688Z,7.93
2018-03-23T11:20:42.953Z,7.80
2018-03-23T11:23:47.602Z,7.80
2018-03-23T11:26:51.751Z,8.47
2018-03-23T11:29:55.054Z,8.23
2018-03-23T11:32:58.316Z,8.10
2018-03-23T11:36:02.462Z,7.87
2018-03-23T11:39:05.736Z,8.05
2018-03-23T11:42:09.171Z,8.47
2018-03-23T11:45:12.437Z,8.57
2018-03-23T11:48:15.697Z,8.00
2018-03-23T11:51:19.025Z,7.60
2018-03-23T11:54:23.052Z,8.27
2018-03-23T11:57:26.322Z,7.97
2018-03-23T12:00:30.341Z,7.87
2018-03-23T12:03:34.473Z,6.90
2018-03-23T12:06:37.759Z,6.83
2018-03-23T12:09:41.792Z,7.17
2018-03-23T12:12:45.056Z,7.90
2018-03-23T12:15:48.323Z,7.63
2018-03-23T12:18:51.865Z,7.10
2018-03-23T12:21:55.124Z,7.90
2018-03-23T12:25:02.332Z,8.93
2018-03-23T12:28:05.797Z,7.20
2018-03-23T12:31:09.410Z,7.47
2018-03-23T12:34:13.687Z,8.37
2018-03-23T12:37:17.704Z,7.57
2018-03-23T12:40:21.780Z,8.07
2018-03-23T12:43:25.036Z,7.40
2018-03-23T12:46:28.316Z,9.20
2018-03-23T12:49:32.338Z,8.13
2018-03-23T12:52:36.369Z,8.47
2018-03-23T12:55:40.406Z,7.70
2018-03-23T12:58:46.870Z,8.10
2018-03-23T13:01:50.821Z,7.57
2018-03-23T13:04:54.852Z,8.27
2018-03-23T13:07:58.112Z,7.03
2018-03-23T13:11:01.368Z,8.33
2018-03-23T13:14:05.405Z,7.23
2018-03-23T13:17:08.663Z,7.40
2018-03-23T13:20:13.093Z,6.73
2018-03-23T13:23:17.119Z,8.53
2018-03-23T13:26:21.676Z,8.23
2018-03-23T13:29:24.992Z,7.53
2018-03-23T13:32:28.347Z,7.80
2018-03-23T13:35:32.425Z,7.07
2018-03-23T13:38:35.697Z,7.30
2018-03-23T13:41:39.284Z,9.13
2018-03-23T13:44:42.608Z,7.53
2018-03-23T13:47:47.115Z,6.87
2018-03-23T13:50:53.568Z,7.27
2018-03-23T13:53:57.901Z,7.57
2018-03-23T13:57:02.913Z,7.40
2018-03-23T14:03:44.293Z,7.40
2018-03-23T14:06:48.388Z,8.57
2018-03-23T14:09:51.879Z,7.72
2018-03-23T14:12:55.830Z,6.93
2018-03-23T14:16:00.346Z,8.13
2018-03-23T14:19:04.496Z,7.87
2018-03-23T14:22:07.817Z,7.03
2018-03-23T14:25:11.121Z,7.43
2018-03-23T14:28:14.484Z,6.97
2018-03-23T14:31:17.807Z,7.33
2018-03-23T14:34:21.226Z,7.50
2018-03-23T14:37:24.517Z,7.67
2018-03-23T14:40:27.828Z,7.57
2018-03-23T14:43:31.092Z,9.77
2018-03-23T14:46:34.423Z,7.57
2018-03-23T14:49:37.698Z,7.20
2018-03-23T14:52:40.967Z,6.80
2018-03-23T14:55:44.359Z,6.50
2018-03-23T14:58:53.102Z,7.07
2018-03-23T15:01:56.433Z,7.20
2018-03-23T15:04:59.736Z,6.47
2018-03-23T15:08:02.998Z,6.37
2018-03-23T15:11:06.275Z,6.77
2018-03-23T15:14:19.472Z,7.10
2018-03-23T15:17:22.892Z,6.77
2018-03-23T15:20:26.201Z,6.43
2018-03-23T15:23:29.489Z,6.23
2018-03-23T15:26:33.116Z,6.57
2018-03-23T15:29:36.422Z,6.27
2018-03-23T15:32:39.710Z,6.07
2018-03-23T15:35:43.057Z,6.27
2018-03-23T15:38:47.859Z,6.65
2018-03-23T15:41:51.326Z,6.37
2018-03-23T15:44:54.595Z,7.17
2018-03-23T15:47:57.925Z,7.23
2018-03-23T15:51:01.253Z,6.57
2018-03-23T15:54:04.504Z,7.60
2018-03-23T15:57:08.564Z,24.77
2018-03-23T16:00:11.860Z,7.33
2018-03-23T16:03:15.197Z,7.33
2018-03-23T16:06:18.464Z,10.90
2018-03-23T16:09:21.742Z,7.80
2018-03-23T16:12:25.121Z,6.60
2018-03-23T16:15:29.300Z,7.33
2018-03-23T16:18:32.732Z,6.67
2018-03-23T16:21:36.765Z,6.30
2018-03-23T16:24:40.037Z,6.57
2018-03-23T16:27:44.893Z,7.80
2018-03-23T16:30:48.161Z,6.03
2018-03-23T16:33:51.486Z,7.30
2018-03-23T16:36:54.752Z,8.80
2018-03-23T16:39:58.117Z,7.63
2018-03-23T16:43:01.482Z,7.13
2018-03-23T16:46:04.762Z,8.40
2018-03-23T16:49:08.812Z,7.20
2018-03-23T16:52:12.090Z,7.27
2018-03-23T16:55:16.114Z,5.87
2018-03-23T16:58:19.470Z,5.93
2018-03-23T17:01:23.536Z,6.20
2018-03-23T17:04:26.956Z,7.20
2018-03-23T17:07:30.301Z,6.33
2018-03-23T17:10:34.355Z,6.77
2018-03-23T17:13:37.908Z,7.27
2018-03-23T17:16:41.170Z,6.30
2018-03-23T17:19:44.600Z,6.50
2018-03-23T17:22:47.825Z,5.87
2018-03-23T17:25:51.877Z,6.77
2018-03-23T17:28:55.152Z,6.17
2018-03-23T17:31:58.414Z,6.77
2018-03-23T17:35:01.975Z,6.10
2018-03-23T17:38:06.173Z,6.83
2018-03-23T17:41:09.445Z,7.50
2018-03-23T17:44:13.591Z,10.43
2018-03-23T17:47:16.926Z,10.17
2018-03-23T17:50:20.189Z,9.88
2018-03-23T17:53:23.467Z,9.50
2018-03-23T17:56:27.508Z,14.67
2018-03-23T17:59:30.936Z,11.17
2018-03-23T18:02:34.807Z,9.10
2018-03-23T18:05:38.162Z,10.33
2018-03-23T18:08:42.225Z,7.60
2018-03-23T18:11:45.666Z,6.73
2018-03-23T18:14:48.949Z,7.03
2018-03-23T18:17:52.207Z,12.10
2018-03-23T18:20:56.541Z,13.40
2018-03-23T18:24:00.996Z,9.37
2018-03-23T18:27:04.366Z,6.83
2018-03-23T18:30:07.780Z,5.87
2018-03-23T18:33:11.085Z,7.20
2018-03-23T18:36:14.403Z,8.02
2018-03-23T18:39:17.724Z,11.80
2018-03-23T18:42:20.997Z,11.97
2018-03-23T18:45:24.272Z,11.93
2018-03-23T18:48:27.528Z,8.97
2018-03-23T18:51:30.793Z,7.77
2018-03-23T18:54:34.077Z,7.80
2018-03-23T18:57:37.364Z,7.33
2018-03-23T19:00:40.650Z,7.23
2018-03-23T19:03:43.969Z,9.10
2018-03-23T19:06:47.316Z,8.07
2018-03-23T19:09:51.695Z,7.90
2018-03-23T19:12:55.269Z,8.23
2018-03-23T19:15:58.601Z,7.27
2018-03-23T19:19:01.982Z,9.87
2018-03-23T19:22:05.363Z,8.70
2018-03-23T19:25:09.480Z,10.97
2018-03-23T19:28:12.753Z,12.33
2018-03-23T19:31:16.031Z,8.43
2018-03-23T19:34:19.348Z,10.75
2018-03-23T19:37:23.386Z,10.53
2018-03-23T19:40:27.415Z,8.80
2018-03-23T19:43:30.670Z,9.67
2018-03-23T19:46:34.781Z,8.70
2018-03-23T19:49:38.195Z,7.60
2018-03-23T19:52:42.347Z,7.27
2018-03-23T19:55:45.642Z,6.53
2018-03-23T19:58:48.913Z,6.87
2018-03-23T20:01:52.951Z,7.60
2018-03-23T20:04:56.520Z,8.20
2018-03-23T20:08:00.562Z,7.10
2018-03-23T20:11:03.837Z,8.53
2018-03-23T20:14:10.767Z,11.60
2018-03-23T20:17:14.027Z,9.30
2018-03-23T20:20:23.473Z,7.17
2018-03-23T20:23:27.487Z,7.40
2018-03-23T20:26:30.755Z,6.85
2018-03-23T20:29:34.085Z,6.63
2018-03-23T20:32:37.538Z,7.60
2018-03-23T20:35:40.881Z,9.83
2018-03-23T20:38:44.927Z,12.30
2018-03-23T20:41:48.221Z,11.90
2018-03-23T20:44:51.558Z,9.45
2018-03-23T20:47:54.820Z,10.07
2018-03-23T20:50:58.102Z,9.33
2018-03-23T20:54:01.369Z,10.70
2018-03-23T20:57:05.416Z,12.10
2018-03-23T21:00:08.728Z,10.10
2018-03-23T21:03:11.994Z,11.67
2018-03-23T21:06:16.036Z,10.50
2018-03-23T21:09:19.331Z,9.23
2018-03-23T21:12:22.601Z,8.40
2018-03-23T21:15:26.187Z,8.63
2018-03-23T21:18:29.448Z,8.73
2018-03-23T21:21:32.718Z,9.20
2018-03-23T21:24:36.032Z,10.23
2018-03-23T21:27:39.423Z,11.17
2018-03-23T21:30:43.314Z,9.60
2018-03-23T21:33:47.596Z,7.53
2018-03-23T21:36:50.869Z,6.43
2018-03-23T21:39:54.186Z,7.90
2018-03-23T21:42:57.447Z,7.70
2018-03-23T21:46:00.722Z,6.77
2018-03-23T21:49:13.025Z,8.03
2018-03-23T21:52:17.156Z,8.03
2018-03-23T21:55:20.431Z,8.10
2018-03-23T21:58:24.453Z,7.37
2018-03-23T22:01:28.498Z,8.18
2018-03-23T22:04:31.895Z,8.20
2018-03-23T22:07:35.280Z,7.67
2018-03-23T22:10:39.314Z,9.83
2018-03-23T22:13:42.578Z,7.20
2018-03-23T22:16:45.921Z,7.90
2018-03-23T22:19:49.714Z,10.07
2018-03-23T22:22:55.537Z,9.27
2018-03-23T22:26:02.425Z,8.73
2018-03-23T22:29:06.467Z,8.30
2018-03-23T22:32:09.733Z,7.20
2018-03-23T22:35:13.006Z,7.10
2018-03-23T22:38:16.272Z,7.53
2018-03-23T22:41:19.539Z,7.57
2018-03-23T22:44:23.784Z,8.17
2018-03-23T22:47:27.040Z,8.20
2018-03-23T22:50:30.860Z,8.60
2018-03-23T22:53:34.796Z,9.00
2018-03-23T22:56:38.100Z,7.47
2018-03-23T22:59:41.381Z,7.30
2018-03-23T23:02:45.398Z,8.93
2018-03-23T23:05:48.687Z,8.50
2018-03-23T23:08:52.052Z,8.50
2018-03-23T23:11:55.326Z,8.87
2018-03-23T23:14:58.598Z,9.10
2018-03-23T23:18:01.888Z,7.83
2018-03-23T23:21:05.926Z,8.00
2018-03-23T23:24:09.213Z,6.93
2018-03-23T23:27:12.476Z,8.00
2018-03-23T23:30:16.510Z,7.45
2018-03-23T23:33:19.967Z,7.30
2018-03-23T23:36:23.460Z,7.60
2018-03-23T23:39:27.353Z,7.60
2018-03-23T23:42:30.618Z,8.17
2018-03-23T23:45:34.696Z,8.52
2018-03-23T23:48:37.952Z,7.20
2018-03-23T23:51:41.214Z,8.53
2018-03-23T23:54:45.553Z,9.13
2018-03-23T23:57:49.596Z,8.27
